sensor_id;sensor_type;location;lat;lon;timestamp;P1;durP1;ratioP1;P2;durP2;ratioP2
6973;SDS011;3527;52.376;8.990;2023-01-31T00:01:31;27.03;;;5.80;;
6973;SDS011;3527;52.376;8.990;2023-01-31T00:04:01;20.33;;;4.60;;
6973;SDS011;3527;52.376;8.990;2023-01-31T00:06:30;30.93;;;5.17;;
6973;SDS011;3527;52.376;8.990;2023-01-31T00:09:00;26.40;;;5.23;;
6973;SDS011;3527;52.376;8.990;2023-01-31T00:11:29;23.63;;;5.57;;
6973;SDS011;3527;52.376;8.990;2023-01-31T00:13:58;22.67;;;5.57;;
6973;SDS011;3527;52.376;8.990;2023-01-31T00:16:45;26.60;;;5.10;;
6973;SDS011;3527;52.376;8.990;2023-01-31T00:19:13;31.70;;;6.03;;
6973;SDS011;3527;52.376;8.990;2023-01-31T00:22:00;39.03;;;5.67;;
6973;SDS011;3527;52.376;8.990;2023-01-31T00:24:46;30.20;;;5.47;;
6973;SDS011;3527;52.376;8.990;2023-01-31T00:27:18;19.57;;;4.27;;
6973;SDS011;3527;52.376;8.990;2023-01-31T00:29:45;29.80;;;4.93;;
6973;SDS011;3527;52.376;8.990;2023-01-31T00:32:12;32.37;;;5.20;;
6973;SDS011;3527;52.376;8.990;2023-01-31T00:34:39;31.63;;;5.63;;
6973;SDS011;3527;52.376;8.990;2023-01-31T00:37:06;30.13;;;5.43;;
6973;SDS011;3527;52.376;8.990;2023-01-31T00:39:32;24.80;;;5.20;;
6973;SDS011;3527;52.376;8.990;2023-01-31T00:41:59;29.33;;;4.93;;
6973;SDS011;3527;52.376;8.990;2023-01-31T00:44:26;28.00;;;4.90;;
6973;SDS011;3527;52.376;8.990;2023-01-31T00:46:53;26.93;;;5.50;;
6973;SDS011;3527;52.376;8.990;2023-01-31T00:49:20;20.37;;;4.70;;
6973;SDS011;3527;52.376;8.990;2023-01-31T00:51:46;28.60;;;5.20;;
6973;SDS011;3527;52.376;8.990;2023-01-31T00:54:13;26.83;;;5.17;;
6973;SDS011;3527;52.376;8.990;2023-01-31T00:56:40;28.03;;;4.90;;
6973;SDS011;3527;52.376;8.990;2023-01-31T00:59:06;31.30;;;5.43;;
6973;SDS011;3527;52.376;8.990;2023-01-31T01:01:34;27.30;;;5.30;;
6973;SDS011;3527;52.376;8.990;2023-01-31T01:04:02;25.87;;;6.50;;
6973;SDS011;3527;52.376;8.990;2023-01-31T01:06:29;26.97;;;5.13;;
6973;SDS011;3527;52.376;8.990;2023-01-31T01:08:56;32.57;;;5.97;;
6973;SDS011;3527;52.376;8.990;2023-01-31T01:11:26;25.33;;;5.03;;
6973;SDS011;3527;52.376;8.990;2023-01-31T01:13:57;19.30;;;4.50;;
6973;SDS011;3527;52.376;8.990;2023-01-31T01:16:26;24.60;;;4.73;;
6973;SDS011;3527;52.376;8.990;2023-01-31T01:18:57;26.70;;;4.83;;
6973;SDS011;3527;52.376;8.990;2023-01-31T01:21:24;26.30;;;5.20;;
6973;SDS011;3527;52.376;8.990;2023-01-31T01:23:54;30.83;;;4.90;;
6973;SDS011;3527;52.376;8.990;2023-01-31T01:26:24;24.50;;;4.57;;
6973;SDS011;3527;52.376;8.990;2023-01-31T01:28:53;23.47;;;4.97;;
6973;SDS011;3527;52.376;8.990;2023-01-31T01:31:21;26.40;;;5.03;;
6973;SDS011;3527;52.376;8.990;2023-01-31T01:33:59;28.37;;;5.33;;
6973;SDS011;3527;52.376;8.990;2023-01-31T01:36:28;25.70;;;6.40;;
6973;SDS011;3527;52.376;8.990;2023-01-31T01:38:56;27.50;;;5.60;;
6973;SDS011;3527;52.376;8.990;2023-01-31T01:41:23;28.50;;;5.13;;
6973;SDS011;3527;52.376;8.990;2023-01-31T01:43:52;24.10;;;4.70;;
6973;SDS011;3527;52.376;8.990;2023-01-31T01:48:51;25.40;;;5.50;;
6973;SDS011;3527;52.376;8.990;2023-01-31T01:51:21;17.03;;;3.73;;
6973;SDS011;3527;52.376;8.990;2023-01-31T01:53:54;24.50;;;4.67;;
6973;SDS011;3527;52.376;8.990;2023-01-31T01:56:25;24.30;;;5.63;;
6973;SDS011;3527;52.376;8.990;2023-01-31T01:59:02;26.47;;;5.50;;
6973;SDS011;3527;52.376;8.990;2023-01-31T02:01:34;20.27;;;4.20;;
6973;SDS011;3527;52.376;8.990;2023-01-31T02:04:03;23.53;;;4.93;;
6973;SDS011;3527;52.376;8.990;2023-01-31T02:06:33;29.13;;;4.77;;
6973;SDS011;3527;52.376;8.990;2023-01-31T02:09:00;19.50;;;4.57;;
6973;SDS011;3527;52.376;8.990;2023-01-31T02:11:29;25.37;;;4.70;;
6973;SDS011;3527;52.376;8.990;2023-01-31T02:14:06;21.37;;;4.50;;
6973;SDS011;3527;52.376;8.990;2023-01-31T02:16:34;27.77;;;5.27;;
6973;SDS011;3527;52.376;8.990;2023-01-31T02:19:03;28.67;;;5.17;;
6973;SDS011;3527;52.376;8.990;2023-01-31T02:27:43;29.97;;;4.93;;
6973;SDS011;3527;52.376;8.990;2023-01-31T02:36:19;29.27;;;4.70;;
6973;SDS011;3527;52.376;8.990;2023-01-31T02:39:05;24.43;;;5.17;;
6973;SDS011;3527;52.376;8.990;2023-01-31T02:50:43;23.77;;;4.57;;
6973;SDS011;3527;52.376;8.990;2023-01-31T02:53:31;27.13;;;4.53;;
6973;SDS011;3527;52.376;8.990;2023-01-31T02:56:03;33.03;;;5.70;;
6973;SDS011;3527;52.376;8.990;2023-01-31T02:58:47;24.93;;;4.63;;
6973;SDS011;3527;52.376;8.990;2023-01-31T03:01:26;22.03;;;4.40;;
6973;SDS011;3527;52.376;8.990;2023-01-31T03:03:57;19.30;;;5.63;;
6973;SDS011;3527;52.376;8.990;2023-01-31T03:11:54;23.33;;;4.47;;
6973;SDS011;3527;52.376;8.990;2023-01-31T03:15:03;20.20;;;4.63;;
6973;SDS011;3527;52.376;8.990;2023-01-31T03:17:49;21.20;;;4.67;;
6973;SDS011;3527;52.376;8.990;2023-01-31T03:20:40;23.10;;;4.50;;
6973;SDS011;3527;52.376;8.990;2023-01-31T03:23:16;26.10;;;3.97;;
6973;SDS011;3527;52.376;8.990;2023-01-31T03:25:45;27.67;;;4.03;;
6973;SDS011;3527;52.376;8.990;2023-01-31T03:28:17;19.97;;;3.57;;
6973;SDS011;3527;52.376;8.990;2023-01-31T03:30:54;17.33;;;4.43;;
6973;SDS011;3527;52.376;8.990;2023-01-31T03:33:33;19.90;;;4.00;;
6973;SDS011;3527;52.376;8.990;2023-01-31T03:36:12;23.07;;;4.30;;
6973;SDS011;3527;52.376;8.990;2023-01-31T03:47:19;19.70;;;4.13;;
6973;SDS011;3527;52.376;8.990;2023-01-31T03:49:51;15.10;;;3.00;;
6973;SDS011;3527;52.376;8.990;2023-01-31T03:52:25;31.73;;;3.97;;
6973;SDS011;3527;52.376;8.990;2023-01-31T03:54:58;16.77;;;3.40;;
6973;SDS011;3527;52.376;8.990;2023-01-31T03:57:42;19.70;;;3.63;;
6973;SDS011;3527;52.376;8.990;2023-01-31T04:00:12;19.27;;;3.47;;
6973;SDS011;3527;52.376;8.990;2023-01-31T04:02:41;17.93;;;3.30;;
6973;SDS011;3527;52.376;8.990;2023-01-31T04:07:38;17.60;;;3.57;;
6973;SDS011;3527;52.376;8.990;2023-01-31T04:10:15;20.17;;;3.80;;
6973;SDS011;3527;52.376;8.990;2023-01-31T04:12:44;13.17;;;3.77;;
6973;SDS011;3527;52.376;8.990;2023-01-31T04:15:12;15.67;;;3.73;;
6973;SDS011;3527;52.376;8.990;2023-01-31T04:17:39;17.70;;;3.97;;
6973;SDS011;3527;52.376;8.990;2023-01-31T04:20:06;17.37;;;3.80;;
6973;SDS011;3527;52.376;8.990;2023-01-31T04:22:36;20.03;;;3.83;;
6973;SDS011;3527;52.376;8.990;2023-01-31T04:25:03;17.60;;;3.50;;
6973;SDS011;3527;52.376;8.990;2023-01-31T04:27:31;14.73;;;3.50;;
6973;SDS011;3527;52.376;8.990;2023-01-31T04:29:59;20.17;;;4.73;;
6973;SDS011;3527;52.376;8.990;2023-01-31T04:32:26;20.37;;;4.57;;
6973;SDS011;3527;52.376;8.990;2023-01-31T04:34:53;18.53;;;4.33;;
6973;SDS011;3527;52.376;8.990;2023-01-31T04:37:20;20.10;;;3.97;;
6973;SDS011;3527;52.376;8.990;2023-01-31T04:39:47;14.63;;;3.20;;
6973;SDS011;3527;52.376;8.990;2023-01-31T04:42:16;14.87;;;3.87;;
6973;SDS011;3527;52.376;8.990;2023-01-31T04:44:43;22.00;;;4.13;;
6973;SDS011;3527;52.376;8.990;2023-01-31T04:47:10;17.50;;;3.83;;
6973;SDS011;3527;52.376;8.990;2023-01-31T04:49:36;16.90;;;3.37;;
6973;SDS011;3527;52.376;8.990;2023-01-31T04:52:03;17.43;;;3.60;;
6973;SDS011;3527;52.376;8.990;2023-01-31T04:54:30;17.43;;;4.27;;
6973;SDS011;3527;52.376;8.990;2023-01-31T04:56:57;14.00;;;3.33;;
6973;SDS011;3527;52.376;8.990;2023-01-31T04:59:24;22.20;;;4.90;;
6973;SDS011;3527;52.376;8.990;2023-01-31T05:01:50;17.73;;;3.83;;
6973;SDS011;3527;52.376;8.990;2023-01-31T05:04:17;20.20;;;4.07;;
6973;SDS011;3527;52.376;8.990;2023-01-31T05:06:46;15.93;;;3.50;;
6973;SDS011;3527;52.376;8.990;2023-01-31T05:09:13;16.30;;;3.53;;
6973;SDS011;3527;52.376;8.990;2023-01-31T05:11:40;15.63;;;4.87;;
6973;SDS011;3527;52.376;8.990;2023-01-31T05:14:07;24.90;;;4.23;;
6973;SDS011;3527;52.376;8.990;2023-01-31T05:16:34;20.70;;;4.40;;
6973;SDS011;3527;52.376;8.990;2023-01-31T05:19:01;19.17;;;4.60;;
6973;SDS011;3527;52.376;8.990;2023-01-31T05:21:28;20.13;;;4.30;;
6973;SDS011;3527;52.376;8.990;2023-01-31T05:23:55;19.47;;;4.40;;
6973;SDS011;3527;52.376;8.990;2023-01-31T05:26:21;16.80;;;4.33;;
6973;SDS011;3527;52.376;8.990;2023-01-31T05:28:48;17.87;;;4.93;;
6973;SDS011;3527;52.376;8.990;2023-01-31T05:31:15;17.37;;;4.70;;
6973;SDS011;3527;52.376;8.990;2023-01-31T05:33:42;16.57;;;4.53;;
6973;SDS011;3527;52.376;8.990;2023-01-31T05:36:09;19.43;;;4.77;;
6973;SDS011;3527;52.376;8.990;2023-01-31T05:38:36;15.87;;;4.20;;
6973;SDS011;3527;52.376;8.990;2023-01-31T05:41:03;17.67;;;4.90;;
6973;SDS011;3527;52.376;8.990;2023-01-31T05:43:30;20.80;;;5.33;;
6973;SDS011;3527;52.376;8.990;2023-01-31T05:45:57;20.97;;;6.57;;
6973;SDS011;3527;52.376;8.990;2023-01-31T05:48:24;13.60;;;4.63;;
6973;SDS011;3527;52.376;8.990;2023-01-31T05:50:51;18.70;;;4.50;;
6973;SDS011;3527;52.376;8.990;2023-01-31T05:53:18;19.43;;;6.00;;
6973;SDS011;3527;52.376;8.990;2023-01-31T05:55:45;17.20;;;5.43;;
6973;SDS011;3527;52.376;8.990;2023-01-31T05:58:13;24.57;;;5.40;;
6973;SDS011;3527;52.376;8.990;2023-01-31T06:00:39;18.67;;;5.47;;
6973;SDS011;3527;52.376;8.990;2023-01-31T06:03:07;24.07;;;5.23;;
6973;SDS011;3527;52.376;8.990;2023-01-31T06:05:34;20.47;;;5.30;;
6973;SDS011;3527;52.376;8.990;2023-01-31T06:08:00;18.43;;;5.00;;
6973;SDS011;3527;52.376;8.990;2023-01-31T06:10:27;21.87;;;5.53;;
6973;SDS011;3527;52.376;8.990;2023-01-31T06:12:54;22.90;;;4.77;;
6973;SDS011;3527;52.376;8.990;2023-01-31T06:15:22;19.83;;;5.30;;
6973;SDS011;3527;52.376;8.990;2023-01-31T06:17:49;23.37;;;5.20;;
6973;SDS011;3527;52.376;8.990;2023-01-31T06:20:15;19.83;;;4.93;;
6973;SDS011;3527;52.376;8.990;2023-01-31T06:22:42;15.93;;;5.40;;
6973;SDS011;3527;52.376;8.990;2023-01-31T06:25:09;24.33;;;6.03;;
6973;SDS011;3527;52.376;8.990;2023-01-31T06:27:35;20.73;;;5.47;;
6973;SDS011;3527;52.376;8.990;2023-01-31T06:30:02;17.77;;;6.23;;
6973;SDS011;3527;52.376;8.990;2023-01-31T06:32:30;19.57;;;5.93;;
6973;SDS011;3527;52.376;8.990;2023-01-31T06:34:57;15.90;;;6.13;;
6973;SDS011;3527;52.376;8.990;2023-01-31T06:37:24;18.60;;;6.43;;
6973;SDS011;3527;52.376;8.990;2023-01-31T06:39:50;20.30;;;6.30;;
6973;SDS011;3527;52.376;8.990;2023-01-31T06:42:17;18.83;;;6.57;;
6973;SDS011;3527;52.376;8.990;2023-01-31T06:44:44;27.10;;;7.20;;
6973;SDS011;3527;52.376;8.990;2023-01-31T06:47:10;23.13;;;6.33;;
6973;SDS011;3527;52.376;8.990;2023-01-31T06:49:38;15.80;;;6.40;;
6973;SDS011;3527;52.376;8.990;2023-01-31T06:52:05;21.07;;;6.47;;
6973;SDS011;3527;52.376;8.990;2023-01-31T06:54:31;22.73;;;7.57;;
6973;SDS011;3527;52.376;8.990;2023-01-31T06:56:58;17.33;;;7.03;;
6973;SDS011;3527;52.376;8.990;2023-01-31T06:59:25;18.10;;;7.13;;
6973;SDS011;3527;52.376;8.990;2023-01-31T07:01:51;20.37;;;7.60;;
6973;SDS011;3527;52.376;8.990;2023-01-31T07:04:18;27.10;;;7.10;;
6973;SDS011;3527;52.376;8.990;2023-01-31T07:06:45;30.07;;;8.30;;
6973;SDS011;3527;52.376;8.990;2023-01-31T07:09:12;22.43;;;8.23;;
6973;SDS011;3527;52.376;8.990;2023-01-31T07:11:39;22.97;;;8.40;;
6973;SDS011;3527;52.376;8.990;2023-01-31T07:14:06;19.40;;;7.63;;
6973;SDS011;3527;52.376;8.990;2023-01-31T07:16:33;26.80;;;9.20;;
6973;SDS011;3527;52.376;8.990;2023-01-31T07:19:00;30.23;;;9.53;;
6973;SDS011;3527;52.376;8.990;2023-01-31T07:21:27;25.67;;;9.07;;
6973;SDS011;3527;52.376;8.990;2023-01-31T07:23:55;28.17;;;9.30;;
6973;SDS011;3527;52.376;8.990;2023-01-31T07:26:22;19.37;;;9.83;;
6973;SDS011;3527;52.376;8.990;2023-01-31T07:28:48;27.77;;;9.67;;
6973;SDS011;3527;52.376;8.990;2023-01-31T07:31:17;25.80;;;9.80;;
6973;SDS011;3527;52.376;8.990;2023-01-31T07:33:43;25.40;;;9.50;;
6973;SDS011;3527;52.376;8.990;2023-01-31T07:36:11;24.43;;;9.43;;
6973;SDS011;3527;52.376;8.990;2023-01-31T07:38:40;18.73;;;8.67;;
6973;SDS011;3527;52.376;8.990;2023-01-31T07:41:08;28.80;;;9.67;;
6973;SDS011;3527;52.376;8.990;2023-01-31T07:43:36;23.60;;;9.40;;
6973;SDS011;3527;52.376;8.990;2023-01-31T07:46:07;25.60;;;8.63;;
6973;SDS011;3527;52.376;8.990;2023-01-31T07:48:36;24.67;;;9.00;;
6973;SDS011;3527;52.376;8.990;2023-01-31T07:51:04;20.43;;;8.47;;
6973;SDS011;3527;52.376;8.990;2023-01-31T07:53:32;21.27;;;9.20;;
6973;SDS011;3527;52.376;8.990;2023-01-31T07:56:11;30.63;;;10.27;;
6973;SDS011;3527;52.376;8.990;2023-01-31T07:58:41;26.63;;;8.93;;
6973;SDS011;3527;52.376;8.990;2023-01-31T08:01:13;24.87;;;9.23;;
6973;SDS011;3527;52.376;8.990;2023-01-31T08:03:59;21.73;;;9.90;;
6973;SDS011;3527;52.376;8.990;2023-01-31T08:06:47;22.10;;;9.43;;
6973;SDS011;3527;52.376;8.990;2023-01-31T08:09:18;31.30;;;9.93;;
6973;SDS011;3527;52.376;8.990;2023-01-31T08:11:45;24.73;;;9.90;;
6973;SDS011;3527;52.376;8.990;2023-01-31T08:14:12;28.80;;;10.50;;
6973;SDS011;3527;52.376;8.990;2023-01-31T08:16:39;26.83;;;10.03;;
6973;SDS011;3527;52.376;8.990;2023-01-31T08:19:07;25.50;;;11.03;;
6973;SDS011;3527;52.376;8.990;2023-01-31T08:21:33;22.93;;;10.70;;
6973;SDS011;3527;52.376;8.990;2023-01-31T08:24:00;26.10;;;11.97;;
6973;SDS011;3527;52.376;8.990;2023-01-31T08:26:31;32.33;;;14.10;;
6973;SDS011;3527;52.376;8.990;2023-01-31T08:28:58;32.53;;;13.93;;
6973;SDS011;3527;52.376;8.990;2023-01-31T08:31:26;25.03;;;12.27;;
6973;SDS011;3527;52.376;8.990;2023-01-31T08:33:54;25.93;;;11.23;;
6973;SDS011;3527;52.376;8.990;2023-01-31T08:36:23;26.80;;;11.10;;
6973;SDS011;3527;52.376;8.990;2023-01-31T08:38:52;21.77;;;10.23;;
6973;SDS011;3527;52.376;8.990;2023-01-31T08:41:22;19.17;;;9.80;;
6973;SDS011;3527;52.376;8.990;2023-01-31T08:43:50;25.40;;;10.37;;
6973;SDS011;3527;52.376;8.990;2023-01-31T08:46:23;23.53;;;10.10;;
6973;SDS011;3527;52.376;8.990;2023-01-31T08:48:51;24.73;;;11.13;;
6973;SDS011;3527;52.376;8.990;2023-01-31T08:51:18;32.33;;;10.63;;
6973;SDS011;3527;52.376;8.990;2023-01-31T08:53:45;24.07;;;11.37;;
6973;SDS011;3527;52.376;8.990;2023-01-31T08:56:13;26.47;;;11.50;;
6973;SDS011;3527;52.376;8.990;2023-01-31T08:58:42;25.87;;;11.90;;
6973;SDS011;3527;52.376;8.990;2023-01-31T09:01:11;27.63;;;11.53;;
6973;SDS011;3527;52.376;8.990;2023-01-31T09:03:43;27.97;;;12.07;;
6973;SDS011;3527;52.376;8.990;2023-01-31T09:06:12;31.40;;;13.27;;
6973;SDS011;3527;52.376;8.990;2023-01-31T09:08:41;26.93;;;12.57;;
6973;SDS011;3527;52.376;8.990;2023-01-31T09:11:08;31.77;;;12.30;;
6973;SDS011;3527;52.376;8.990;2023-01-31T09:13:35;26.67;;;12.97;;
6973;SDS011;3527;52.376;8.990;2023-01-31T09:16:03;32.20;;;13.63;;
6973;SDS011;3527;52.376;8.990;2023-01-31T09:18:36;23.13;;;13.13;;
6973;SDS011;3527;52.376;8.990;2023-01-31T09:23:32;27.47;;;13.03;;
6973;SDS011;3527;52.376;8.990;2023-01-31T09:26:01;28.87;;;14.63;;
6973;SDS011;3527;52.376;8.990;2023-01-31T09:28:28;35.80;;;14.43;;
6973;SDS011;3527;52.376;8.990;2023-01-31T09:31:01;26.90;;;14.13;;
6973;SDS011;3527;52.376;8.990;2023-01-31T09:33:32;30.73;;;13.97;;
6973;SDS011;3527;52.376;8.990;2023-01-31T09:36:06;29.87;;;13.70;;
6973;SDS011;3527;52.376;8.990;2023-01-31T09:38:39;31.03;;;14.07;;
6973;SDS011;3527;52.376;8.990;2023-01-31T09:43:49;28.80;;;14.10;;
6973;SDS011;3527;52.376;8.990;2023-01-31T09:46:23;29.57;;;13.13;;
6973;SDS011;3527;52.376;8.990;2023-01-31T09:48:54;24.47;;;12.63;;
6973;SDS011;3527;52.376;8.990;2023-01-31T09:51:23;31.47;;;12.93;;
6973;SDS011;3527;52.376;8.990;2023-01-31T09:53:50;31.67;;;13.50;;
6973;SDS011;3527;52.376;8.990;2023-01-31T10:01:31;29.53;;;13.07;;
6973;SDS011;3527;52.376;8.990;2023-01-31T10:07:31;22.00;;;11.53;;
6973;SDS011;3527;52.376;8.990;2023-01-31T10:10:04;25.20;;;11.57;;
6973;SDS011;3527;52.376;8.990;2023-01-31T10:12:50;24.10;;;11.67;;
6973;SDS011;3527;52.376;8.990;2023-01-31T10:15:42;24.67;;;11.43;;
6973;SDS011;3527;52.376;8.990;2023-01-31T10:21:22;24.40;;;10.70;;
6973;SDS011;3527;52.376;8.990;2023-01-31T10:23:55;25.70;;;11.63;;
6973;SDS011;3527;52.376;8.990;2023-01-31T10:26:33;25.57;;;11.33;;
6973;SDS011;3527;52.376;8.990;2023-01-31T10:31:57;23.07;;;11.00;;
6973;SDS011;3527;52.376;8.990;2023-01-31T10:37:52;23.77;;;10.77;;
6973;SDS011;3527;52.376;8.990;2023-01-31T10:40:33;26.37;;;11.80;;
6973;SDS011;3527;52.376;8.990;2023-01-31T10:43:07;25.57;;;11.80;;
6973;SDS011;3527;52.376;8.990;2023-01-31T10:45:42;28.93;;;12.70;;
6973;SDS011;3527;52.376;8.990;2023-01-31T10:48:19;24.87;;;10.27;;
6973;SDS011;3527;52.376;8.990;2023-01-31T10:53:55;25.30;;;11.03;;
6973;SDS011;3527;52.376;8.990;2023-01-31T10:56:46;21.67;;;10.77;;
6973;SDS011;3527;52.376;8.990;2023-01-31T11:01:51;22.63;;;11.07;;
6973;SDS011;3527;52.376;8.990;2023-01-31T11:04:40;26.23;;;10.87;;
6973;SDS011;3527;52.376;8.990;2023-01-31T11:07:09;23.80;;;11.23;;
6973;SDS011;3527;52.376;8.990;2023-01-31T11:09:38;23.80;;;11.13;;
6973;SDS011;3527;52.376;8.990;2023-01-31T11:12:08;25.60;;;11.27;;
6973;SDS011;3527;52.376;8.990;2023-01-31T11:14:35;19.13;;;9.83;;
6973;SDS011;3527;52.376;8.990;2023-01-31T11:17:12;24.67;;;11.87;;
6973;SDS011;3527;52.376;8.990;2023-01-31T11:19:46;18.90;;;10.93;;
6973;SDS011;3527;52.376;8.990;2023-01-31T11:24:48;23.90;;;10.23;;
6973;SDS011;3527;52.376;8.990;2023-01-31T11:27:26;25.97;;;11.50;;
6973;SDS011;3527;52.376;8.990;2023-01-31T11:29:58;23.87;;;11.23;;
6973;SDS011;3527;52.376;8.990;2023-01-31T11:32:29;21.70;;;10.23;;
6973;SDS011;3527;52.376;8.990;2023-01-31T11:37:32;24.97;;;10.63;;
6973;SDS011;3527;52.376;8.990;2023-01-31T11:40:01;22.43;;;10.20;;
6973;SDS011;3527;52.376;8.990;2023-01-31T11:42:49;20.10;;;9.83;;
6973;SDS011;3527;52.376;8.990;2023-01-31T11:45:19;19.37;;;10.73;;
6973;SDS011;3527;52.376;8.990;2023-01-31T11:47:49;18.90;;;10.13;;
6973;SDS011;3527;52.376;8.990;2023-01-31T11:50:31;26.87;;;12.10;;
6973;SDS011;3527;52.376;8.990;2023-01-31T11:52:59;18.13;;;10.37;;
6973;SDS011;3527;52.376;8.990;2023-01-31T11:55:37;22.53;;;10.50;;
6973;SDS011;3527;52.376;8.990;2023-01-31T11:58:13;25.67;;;10.43;;
6973;SDS011;3527;52.376;8.990;2023-01-31T12:03:28;21.20;;;9.67;;
6973;SDS011;3527;52.376;8.990;2023-01-31T12:06:00;27.53;;;10.60;;
6973;SDS011;3527;52.376;8.990;2023-01-31T12:08:37;21.50;;;10.47;;
6973;SDS011;3527;52.376;8.990;2023-01-31T12:11:22;26.20;;;10.83;;
6973;SDS011;3527;52.376;8.990;2023-01-31T12:13:53;24.53;;;11.23;;
6973;SDS011;3527;52.376;8.990;2023-01-31T12:16:26;24.17;;;11.37;;
6973;SDS011;3527;52.376;8.990;2023-01-31T12:27:12;20.07;;;10.63;;
6973;SDS011;3527;52.376;8.990;2023-01-31T12:35:31;23.17;;;10.30;;
6973;SDS011;3527;52.376;8.990;2023-01-31T12:43:46;26.37;;;11.73;;
6973;SDS011;3527;52.376;8.990;2023-01-31T12:46:24;26.07;;;12.90;;
6973;SDS011;3527;52.376;8.990;2023-01-31T12:49:03;28.20;;;12.00;;
6973;SDS011;3527;52.376;8.990;2023-01-31T12:51:41;25.30;;;12.23;;
6973;SDS011;3527;52.376;8.990;2023-01-31T12:57:10;24.83;;;12.17;;
6973;SDS011;3527;52.376;8.990;2023-01-31T13:02:40;23.57;;;12.17;;
6973;SDS011;3527;52.376;8.990;2023-01-31T13:05:32;25.20;;;11.47;;
6973;SDS011;3527;52.376;8.990;2023-01-31T13:08:17;19.23;;;11.40;;
6973;SDS011;3527;52.376;8.990;2023-01-31T13:10:50;20.77;;;11.90;;
6973;SDS011;3527;52.376;8.990;2023-01-31T13:13:24;27.93;;;12.73;;
6973;SDS011;3527;52.376;8.990;2023-01-31T13:16:00;18.63;;;11.27;;
6973;SDS011;3527;52.376;8.990;2023-01-31T13:18:35;19.63;;;11.63;;
6973;SDS011;3527;52.376;8.990;2023-01-31T13:21:05;20.60;;;11.50;;
6973;SDS011;3527;52.376;8.990;2023-01-31T13:23:42;25.43;;;11.53;;
6973;SDS011;3527;52.376;8.990;2023-01-31T13:26:16;28.83;;;11.87;;
6973;SDS011;3527;52.376;8.990;2023-01-31T13:31:23;21.20;;;12.97;;
6973;SDS011;3527;52.376;8.990;2023-01-31T13:36:31;17.97;;;11.67;;
6973;SDS011;3527;52.376;8.990;2023-01-31T13:39:14;17.07;;;11.13;;
6973;SDS011;3527;52.376;8.990;2023-01-31T13:41:45;17.83;;;11.47;;
6973;SDS011;3527;52.376;8.990;2023-01-31T13:44:12;18.83;;;11.43;;
6973;SDS011;3527;52.376;8.990;2023-01-31T13:46:48;17.77;;;11.13;;
6973;SDS011;3527;52.376;8.990;2023-01-31T13:52:16;17.20;;;9.80;;
6973;SDS011;3527;52.376;8.990;2023-01-31T13:54:52;14.77;;;9.70;;
6973;SDS011;3527;52.376;8.990;2023-01-31T13:57:24;13.27;;;9.03;;
6973;SDS011;3527;52.376;8.990;2023-01-31T13:59:55;12.23;;;9.03;;
6973;SDS011;3527;52.376;8.990;2023-01-31T14:02:29;12.10;;;8.70;;
6973;SDS011;3527;52.376;8.990;2023-01-31T14:05:06;11.17;;;8.23;;
6973;SDS011;3527;52.376;8.990;2023-01-31T14:16:39;10.83;;;7.77;;
6973;SDS011;3527;52.376;8.990;2023-01-31T14:22:17;14.20;;;7.80;;
6973;SDS011;3527;52.376;8.990;2023-01-31T14:27:19;11.23;;;7.53;;
6973;SDS011;3527;52.376;8.990;2023-01-31T14:32:38;10.97;;;7.33;;
6973;SDS011;3527;52.376;8.990;2023-01-31T14:40:45;14.40;;;9.60;;
6973;SDS011;3527;52.376;8.990;2023-01-31T14:48:54;15.60;;;10.17;;
6973;SDS011;3527;52.376;8.990;2023-01-31T14:51:53;13.80;;;10.37;;
6973;SDS011;3527;52.376;8.990;2023-01-31T14:57:12;11.83;;;9.17;;
6973;SDS011;3527;52.376;8.990;2023-01-31T15:05:06;13.20;;;10.77;;
6973;SDS011;3527;52.376;8.990;2023-01-31T15:07:55;16.50;;;10.67;;
6973;SDS011;3527;52.376;8.990;2023-01-31T15:13:42;15.73;;;12.00;;
6973;SDS011;3527;52.376;8.990;2023-01-31T15:19:06;16.17;;;11.37;;
6973;SDS011;3527;52.376;8.990;2023-01-31T15:21:44;19.23;;;12.33;;
6973;SDS011;3527;52.376;8.990;2023-01-31T15:24:23;19.93;;;12.13;;
6973;SDS011;3527;52.376;8.990;2023-01-31T15:26:59;20.17;;;11.80;;
6973;SDS011;3527;52.376;8.990;2023-01-31T15:29:33;15.27;;;11.33;;
6973;SDS011;3527;52.376;8.990;2023-01-31T15:32:25;16.60;;;11.77;;
6973;SDS011;3527;52.376;8.990;2023-01-31T15:35:01;17.67;;;10.77;;
6973;SDS011;3527;52.376;8.990;2023-01-31T15:37:33;17.40;;;10.53;;
6973;SDS011;3527;52.376;8.990;2023-01-31T15:40:18;16.27;;;10.33;;
6973;SDS011;3527;52.376;8.990;2023-01-31T15:42:48;16.80;;;10.30;;
6973;SDS011;3527;52.376;8.990;2023-01-31T15:45:25;17.50;;;10.20;;
6973;SDS011;3527;52.376;8.990;2023-01-31T15:47:59;15.60;;;10.10;;
6973;SDS011;3527;52.376;8.990;2023-01-31T15:50:29;13.40;;;8.80;;
6973;SDS011;3527;52.376;8.990;2023-01-31T15:53:01;13.60;;;8.63;;
6973;SDS011;3527;52.376;8.990;2023-01-31T15:55:29;13.47;;;7.83;;
6973;SDS011;3527;52.376;8.990;2023-01-31T15:57:58;13.93;;;8.07;;
6973;SDS011;3527;52.376;8.990;2023-01-31T16:00:31;17.13;;;7.13;;
6973;SDS011;3527;52.376;8.990;2023-01-31T16:03:01;13.10;;;6.47;;
6973;SDS011;3527;52.376;8.990;2023-01-31T16:05:34;12.40;;;6.47;;
6973;SDS011;3527;52.376;8.990;2023-01-31T16:08:06;9.63;;;6.53;;
6973;SDS011;3527;52.376;8.990;2023-01-31T16:10:46;9.20;;;5.87;;
6973;SDS011;3527;52.376;8.990;2023-01-31T16:13:15;10.13;;;6.20;;
6973;SDS011;3527;52.376;8.990;2023-01-31T16:15:42;12.50;;;6.20;;
6973;SDS011;3527;52.376;8.990;2023-01-31T16:18:09;12.23;;;6.53;;
6973;SDS011;3527;52.376;8.990;2023-01-31T16:23:23;13.17;;;6.70;;
6973;SDS011;3527;52.376;8.990;2023-01-31T16:28:43;16.80;;;7.30;;
6973;SDS011;3527;52.376;8.990;2023-01-31T16:31:16;15.40;;;7.83;;
6973;SDS011;3527;52.376;8.990;2023-01-31T16:33:51;12.53;;;8.23;;
6973;SDS011;3527;52.376;8.990;2023-01-31T16:36:21;14.43;;;8.43;;
6973;SDS011;3527;52.376;8.990;2023-01-31T16:38:55;14.17;;;7.53;;
6973;SDS011;3527;52.376;8.990;2023-01-31T16:41:36;14.40;;;7.40;;
6973;SDS011;3527;52.376;8.990;2023-01-31T16:44:23;14.87;;;7.73;;
6973;SDS011;3527;52.376;8.990;2023-01-31T16:46:55;16.97;;;8.60;;
6973;SDS011;3527;52.376;8.990;2023-01-31T16:51:56;14.57;;;7.57;;
6973;SDS011;3527;52.376;8.990;2023-01-31T16:57:38;16.03;;;6.67;;
6973;SDS011;3527;52.376;8.990;2023-01-31T17:00:50;12.63;;;6.20;;
6973;SDS011;3527;52.376;8.990;2023-01-31T17:02:53;11.93;;;5.57;;
6973;SDS011;3527;52.376;8.990;2023-01-31T17:05:26;16.33;;;4.87;;
6973;SDS011;3527;52.376;8.990;2023-01-31T17:07:55;12.67;;;4.23;;
6973;SDS011;3527;52.376;8.990;2023-01-31T17:10:25;14.20;;;3.90;;
6973;SDS011;3527;52.376;8.990;2023-01-31T17:12:59;10.40;;;3.57;;
6973;SDS011;3527;52.376;8.990;2023-01-31T17:15:29;7.13;;;3.13;;
6973;SDS011;3527;52.376;8.990;2023-01-31T17:17:56;12.20;;;3.50;;
6973;SDS011;3527;52.376;8.990;2023-01-31T17:20:23;11.90;;;3.67;;
6973;SDS011;3527;52.376;8.990;2023-01-31T17:22:50;10.40;;;3.50;;
6973;SDS011;3527;52.376;8.990;2023-01-31T17:25:32;9.53;;;3.03;;
6973;SDS011;3527;52.376;8.990;2023-01-31T17:28:00;11.03;;;3.53;;
6973;SDS011;3527;52.376;8.990;2023-01-31T17:30:26;10.93;;;3.27;;
6973;SDS011;3527;52.376;8.990;2023-01-31T17:32:56;12.20;;;4.07;;
6973;SDS011;3527;52.376;8.990;2023-01-31T17:35:57;9.60;;;3.60;;
6973;SDS011;3527;52.376;8.990;2023-01-31T17:38:17;8.97;;;3.17;;
6973;SDS011;3527;52.376;8.990;2023-01-31T17:40:44;10.77;;;3.57;;
6973;SDS011;3527;52.376;8.990;2023-01-31T17:43:16;14.00;;;4.23;;
6973;SDS011;3527;52.376;8.990;2023-01-31T17:45:47;11.67;;;3.57;;
6973;SDS011;3527;52.376;8.990;2023-01-31T17:48:14;13.83;;;4.23;;
6973;SDS011;3527;52.376;8.990;2023-01-31T17:50:51;17.63;;;4.63;;
6973;SDS011;3527;52.376;8.990;2023-01-31T17:53:19;22.93;;;4.53;;
6973;SDS011;3527;52.376;8.990;2023-01-31T17:55:45;14.97;;;4.57;;
6973;SDS011;3527;52.376;8.990;2023-01-31T17:58:13;14.07;;;4.57;;
6973;SDS011;3527;52.376;8.990;2023-01-31T18:00:40;17.50;;;4.57;;
6973;SDS011;3527;52.376;8.990;2023-01-31T18:03:08;12.70;;;4.13;;
6973;SDS011;3527;52.376;8.990;2023-01-31T18:05:40;17.07;;;4.00;;
6973;SDS011;3527;52.376;8.990;2023-01-31T18:08:08;13.47;;;3.93;;